createdAt,value
2023-05-23T00:01:08.060Z,14.43
2023-05-23T00:03:37.516Z,14.41
2023-05-23T00:06:06.855Z,14.43
2023-05-23T00:08:35.972Z,14.39
2023-05-23T00:11:02.467Z,14.40
2023-05-23T00:13:28.974Z,14.38
2023-05-23T00:15:57.615Z,14.38
2023-05-23T00:18:26.473Z,14.35
2023-05-23T00:20:53.037Z,14.33
2023-05-23T00:23:20.849Z,14.32
2023-05-23T00:25:55.180Z,14.30
2023-05-23T00:28:25.880Z,14.26
2023-05-23T00:30:54.822Z,14.16
2023-05-23T00:33:22.250Z,14.14
2023-05-23T00:35:49.250Z,14.06
2023-05-23T00:38:18.630Z,14.02
2023-05-23T00:40:48.221Z,13.99
2023-05-23T00:43:14.869Z,13.93
2023-05-23T00:45:41.565Z,13.93
2023-05-23T00:48:09.068Z,13.89
2023-05-23T00:50:36.762Z,13.86
2023-05-23T00:53:05.776Z,13.81
2023-05-23T00:55:35.233Z,13.82
2023-05-23T00:58:01.880Z,13.80
2023-05-23T01:00:28.985Z,13.83
2023-05-23T01:02:55.796Z,13.80
2023-05-23T01:05:26.918Z,13.81
2023-05-23T01:07:56.996Z,13.81
2023-05-23T01:10:26.814Z,13.81
2023-05-23T01:13:01.621Z,13.81
2023-05-23T01:15:47.976Z,13.81
2023-05-23T01:18:24.431Z,13.84
2023-05-23T01:20:56.133Z,13.86
2023-05-23T01:23:28.454Z,13.86
2023-05-23T01:25:59.454Z,13.86
2023-05-23T01:28:32.137Z,13.83
2023-05-23T01:31:02.287Z,13.86
2023-05-23T01:33:29.085Z,13.83
2023-05-23T01:36:02.173Z,13.80
2023-05-23T01:38:28.660Z,13.78
2023-05-23T01:40:58.249Z,13.78
2023-05-23T01:43:27.502Z,13.80
2023-05-23T01:45:58.732Z,13.80
2023-05-23T01:48:28.683Z,13.80
2023-05-23T01:50:59.079Z,13.80
2023-05-23T01:53:26.665Z,13.80
2023-05-23T01:55:53.972Z,13.78
2023-05-23T01:58:23.208Z,13.75
2023-05-23T02:00:49.932Z,13.75
2023-05-23T02:03:16.725Z,13.70
2023-05-23T02:05:46.058Z,13.68
2023-05-23T02:08:14.882Z,13.66
2023-05-23T02:10:48.804Z,13.66
2023-05-23T02:13:15.349Z,13.65
2023-05-23T02:15:42.115Z,13.63
2023-05-23T02:18:08.974Z,13.61
2023-05-23T02:20:35.645Z,13.58
2023-05-23T02:23:04.326Z,13.57
2023-05-23T02:25:30.866Z,13.55
2023-05-23T02:28:00.004Z,13.57
2023-05-23T02:30:31.416Z,13.56
2023-05-23T02:33:05.364Z,13.57
2023-05-23T02:35:36.653Z,13.58
2023-05-23T02:38:03.214Z,13.62
2023-05-23T02:40:29.761Z,13.62
2023-05-23T02:42:58.539Z,13.64
2023-05-23T02:45:29.663Z,13.65
2023-05-23T02:47:56.250Z,13.67
2023-05-23T02:50:25.367Z,13.66
2023-05-23T02:52:51.909Z,13.69
2023-05-23T02:55:20.763Z,13.71
2023-05-23T02:57:47.229Z,13.72
2023-05-23T03:00:15.630Z,13.74
2023-05-23T03:02:42.973Z,13.72
2023-05-23T03:05:11.906Z,13.72
2023-05-23T03:07:40.845Z,13.75
2023-05-23T03:10:08.104Z,13.74
2023-05-23T03:12:34.652Z,13.73
2023-05-23T03:15:03.479Z,13.75
2023-05-23T03:17:29.952Z,13.75
2023-05-23T03:19:59.014Z,13.71
2023-05-23T03:22:30.362Z,13.69
2023-05-23T03:24:59.124Z,13.66
2023-05-23T03:27:30.478Z,13.64
2023-05-23T03:29:56.963Z,13.63
2023-05-23T03:32:23.431Z,13.57
2023-05-23T03:34:49.899Z,13.50
2023-05-23T03:37:18.673Z,13.43
2023-05-23T03:39:47.494Z,13.39
2023-05-23T03:42:16.321Z,13.37
2023-05-23T03:44:45.422Z,13.36
2023-05-23T03:47:12.049Z,13.37
2023-05-23T03:49:40.968Z,13.30
2023-05-23T03:52:07.917Z,13.26
2023-05-23T03:54:34.397Z,13.25
2023-05-23T03:57:03.570Z,13.21
2023-05-23T03:59:32.403Z,13.21
2023-05-23T04:02:01.307Z,13.20
2023-05-23T04:04:31.334Z,13.19
2023-05-23T04:06:59.023Z,13.18
2023-05-23T04:09:27.947Z,13.16
2023-05-23T04:11:54.424Z,13.11
2023-05-23T04:14:23.176Z,13.06
2023-05-23T04:16:49.757Z,13.06
2023-05-23T04:19:18.420Z,13.07
2023-05-23T04:21:44.957Z,13.04
2023-05-23T04:24:11.514Z,13.02
2023-05-23T04:26:37.973Z,13.02
2023-05-23T04:29:06.855Z,12.99
2023-05-23T04:31:34.288Z,12.94
2023-05-23T04:34:02.446Z,12.94
2023-05-23T04:36:31.436Z,12.95
2023-05-23T04:38:58.010Z,12.90
2023-05-23T04:41:24.597Z,12.93
2023-05-23T04:43:54.705Z,12.85
2023-05-23T04:46:27.080Z,12.83
2023-05-23T04:48:55.083Z,12.79
2023-05-23T04:51:22.076Z,12.81
2023-05-23T04:53:52.603Z,12.82
2023-05-23T04:56:21.790Z,12.84
2023-05-23T04:58:50.764Z,12.84
2023-05-23T05:01:20.674Z,12.81
2023-05-23T05:03:48.775Z,12.78
2023-05-23T05:06:18.387Z,12.77
2023-05-23T05:08:45.354Z,12.70
2023-05-23T05:11:13.955Z,12.68
2023-05-23T05:13:40.550Z,12.72
2023-05-23T05:16:07.674Z,12.73
2023-05-23T05:18:37.974Z,12.72
2023-05-23T05:21:08.184Z,12.70
2023-05-23T05:23:36.225Z,12.71
2023-05-23T05:26:03.347Z,12.66
2023-05-23T05:28:32.124Z,12.59
2023-05-23T05:30:58.641Z,12.54
2023-05-23T05:33:25.209Z,12.53
2023-05-23T05:35:52.075Z,12.53
2023-05-23T05:38:18.686Z,12.52
2023-05-23T05:40:52.569Z,12.52
2023-05-23T05:43:23.988Z,12.53
2023-05-23T05:45:50.675Z,12.57
2023-05-23T05:48:19.468Z,12.59
2023-05-23T05:50:48.282Z,12.58
2023-05-23T05:53:14.861Z,12.62
2023-05-23T05:55:41.443Z,12.77
2023-05-23T05:58:07.928Z,12.84
2023-05-23T06:00:42.569Z,12.97
2023-05-23T06:03:09.372Z,12.99
2023-05-23T06:05:39.659Z,12.98
2023-05-23T06:08:08.478Z,12.95
2023-05-23T06:10:37.309Z,12.87
2023-05-23T06:13:06.335Z,12.86
2023-05-23T06:15:32.860Z,12.85
2023-05-23T06:18:01.665Z,12.82
2023-05-23T06:20:28.784Z,12.78
2023-05-23T06:22:55.370Z,12.77
2023-05-23T06:25:27.027Z,12.78
2023-05-23T06:27:56.034Z,12.82
2023-05-23T06:30:25.024Z,12.74
2023-05-23T06:32:51.562Z,12.74
2023-05-23T06:35:18.083Z,12.62
2023-05-23T06:37:46.841Z,12.62
2023-05-23T06:40:18.151Z,12.74
2023-05-23T06:42:49.447Z,12.76
2023-05-23T06:45:20.756Z,12.73
2023-05-23T06:47:49.453Z,12.70
2023-05-23T06:50:19.843Z,12.70
2023-05-23T06:52:51.131Z,12.71
2023-05-23T06:55:19.428Z,12.66
2023-05-23T06:57:46.846Z,12.62
2023-05-23T07:00:16.067Z,12.59
2023-05-23T07:02:45.853Z,12.54
2023-05-23T07:05:14.753Z,12.54
2023-05-23T07:07:43.761Z,12.51
2023-05-23T07:10:13.764Z,12.49
2023-05-23T07:12:40.391Z,12.53
2023-05-23T07:15:13.565Z,12.54
2023-05-23T07:17:42.337Z,12.59
2023-05-23T07:20:11.572Z,12.53
2023-05-23T07:22:40.409Z,12.49
2023-05-23T07:25:12.753Z,12.52
2023-05-23T07:27:44.038Z,12.56
2023-05-23T07:30:13.630Z,12.60
2023-05-23T07:32:40.181Z,12.64
2023-05-23T07:35:07.080Z,12.64
2023-05-23T07:37:33.805Z,12.62
2023-05-23T07:40:04.677Z,12.59
2023-05-23T07:42:31.226Z,12.64
2023-05-23T07:45:00.095Z,12.62
2023-05-23T07:47:29.181Z,12.70
2023-05-23T07:49:59.044Z,12.87
2023-05-23T07:52:27.788Z,13.07
2023-05-23T07:54:54.307Z,13.38
2023-05-23T07:57:25.911Z,13.32
2023-05-23T07:59:53.560Z,13.18
2023-05-23T08:02:23.144Z,13.18
2023-05-23T08:04:53.389Z,13.24
2023-05-23T08:07:19.881Z,13.34
2023-05-23T08:09:49.114Z,13.52
2023-05-23T08:12:17.924Z,13.81
2023-05-23T08:14:51.899Z,13.88
2023-05-23T08:17:19.176Z,13.94
2023-05-23T08:19:50.855Z,14.17
2023-05-23T08:22:19.999Z,14.59
2023-05-23T08:24:46.505Z,14.67
2023-05-23T08:27:15.611Z,14.70
2023-05-23T08:29:44.392Z,14.98
2023-05-23T08:32:15.929Z,14.69
2023-05-23T08:34:45.197Z,14.23
2023-05-23T08:37:11.754Z,14.10
2023-05-23T08:39:38.298Z,14.30
2023-05-23T08:42:05.187Z,14.88
2023-05-23T08:44:31.780Z,15.52
2023-05-23T08:47:07.764Z,15.88
2023-05-23T08:49:37.804Z,15.93
2023-05-23T08:52:11.479Z,15.72
2023-05-23T08:54:45.043Z,15.32
2023-05-23T08:57:14.378Z,15.06
2023-05-23T08:59:41.480Z,14.64
2023-05-23T09:02:13.191Z,14.63
2023-05-23T09:04:43.111Z,14.73
2023-05-23T09:07:15.717Z,14.43
2023-05-23T09:09:42.728Z,14.43
2023-05-23T09:12:10.249Z,14.51
2023-05-23T09:14:37.481Z,14.87
2023-05-23T09:17:04.872Z,15.10
2023-05-23T09:19:31.709Z,15.31
2023-05-23T09:22:01.030Z,15.47
2023-05-23T09:24:35.786Z,15.39
2023-05-23T09:27:03.167Z,15.39
2023-05-23T09:29:30.786Z,15.34
2023-05-23T09:32:15.912Z,15.25
2023-05-23T09:35:07.097Z,15.33
2023-05-23T09:37:39.523Z,15.48
2023-05-23T09:40:14.054Z,15.51
2023-05-23T09:42:45.332Z,15.93
2023-05-23T09:45:16.189Z,16.44
2023-05-23T09:47:52.905Z,16.64
2023-05-23T09:50:20.877Z,16.23
2023-05-23T09:52:48.098Z,15.74
2023-05-23T09:55:17.065Z,15.82
2023-05-23T09:57:44.738Z,16.02
2023-05-23T10:00:14.597Z,15.85
2023-05-23T10:03:12.444Z,15.46
2023-05-23T10:05:41.537Z,15.10
2023-05-23T10:08:12.106Z,14.92
2023-05-23T10:10:58.608Z,15.18
2023-05-23T10:13:29.060Z,15.62
2023-05-23T10:16:20.845Z,15.99
2023-05-23T10:18:54.854Z,15.77
2023-05-23T10:21:32.254Z,15.85
2023-05-23T10:24:04.346Z,16.20
2023-05-23T10:26:33.262Z,16.13
2023-05-23T10:29:02.842Z,15.86
2023-05-23T10:31:30.131Z,16.16
2023-05-23T10:34:09.234Z,16.40
2023-05-23T10:36:57.207Z,16.08
2023-05-23T10:39:38.377Z,15.58
2023-05-23T10:42:17.326Z,15.40
2023-05-23T10:44:46.220Z,15.64
2023-05-23T10:47:27.781Z,15.73
2023-05-23T10:49:57.818Z,15.88
2023-05-23T10:52:28.272Z,15.80
2023-05-23T10:54:59.728Z,15.88
2023-05-23T10:57:29.575Z,16.16
2023-05-23T11:00:01.757Z,15.91
2023-05-23T11:02:29.569Z,15.80
2023-05-23T11:05:14.649Z,16.06
2023-05-23T11:07:43.548Z,16.70
2023-05-23T11:10:11.492Z,16.49
2023-05-23T11:12:46.632Z,15.96
2023-05-23T11:15:23.965Z,15.66
2023-05-23T11:17:57.830Z,16.13
2023-05-23T11:20:28.476Z,15.72
2023-05-23T11:23:00.524Z,15.89
2023-05-23T11:25:49.201Z,16.15
2023-05-23T11:28:17.329Z,16.16
2023-05-23T11:30:44.456Z,16.22
2023-05-23T11:33:16.576Z,16.12
2023-05-23T11:35:47.908Z,15.91
2023-05-23T11:38:16.661Z,15.82
2023-05-23T11:40:46.659Z,15.72
2023-05-23T11:43:15.830Z,15.60
2023-05-23T11:45:46.982Z,15.81
2023-05-23T11:48:17.727Z,15.82
2023-05-23T11:50:54.372Z,15.75
2023-05-23T11:53:23.055Z,15.64
2023-05-23T11:55:57.609Z,15.50
2023-05-23T11:58:32.098Z,15.60
2023-05-23T12:01:11.759Z,15.51
2023-05-23T12:03:50.132Z,15.05
2023-05-23T12:06:24.847Z,15.20
2023-05-23T12:09:02.052Z,15.79
2023-05-23T12:11:34.680Z,16.06
2023-05-23T12:14:03.259Z,16.37
2023-05-23T12:16:31.915Z,16.59
2023-05-23T12:18:59.302Z,16.52
2023-05-23T12:21:27.001Z,16.87
2023-05-23T12:23:56.234Z,16.96
2023-05-23T12:26:23.150Z,16.21
2023-05-23T12:28:49.904Z,16.14
2023-05-23T12:31:17.303Z,16.08
2023-05-23T12:33:45.202Z,15.80
2023-05-23T12:36:12.660Z,16.06
2023-05-23T12:38:40.933Z,16.53
2023-05-23T12:41:11.427Z,17.01
2023-05-23T12:43:41.342Z,16.83
2023-05-23T12:46:08.275Z,16.36
2023-05-23T12:48:37.178Z,16.67
2023-05-23T12:51:06.713Z,16.67
2023-05-23T12:53:33.295Z,17.12
2023-05-23T12:56:00.514Z,17.63
2023-05-23T12:58:29.034Z,17.08
2023-05-23T13:00:56.973Z,16.74
2023-05-23T13:03:28.380Z,16.74
2023-05-23T13:05:57.499Z,16.76
2023-05-23T13:08:25.216Z,16.76
2023-05-23T13:10:54.245Z,16.00
2023-05-23T13:13:21.015Z,15.82
2023-05-23T13:15:51.651Z,16.00
2023-05-23T13:18:18.610Z,16.45
2023-05-23T13:20:47.540Z,16.70
2023-05-23T13:23:14.237Z,16.76
2023-05-23T13:25:41.329Z,17.02
2023-05-23T13:28:10.333Z,17.29
2023-05-23T13:30:36.935Z,16.77
2023-05-23T13:33:05.818Z,16.04
2023-05-23T13:35:34.829Z,15.86
2023-05-23T13:38:01.468Z,15.63
2023-05-23T13:40:28.023Z,15.52
2023-05-23T13:42:54.597Z,15.33
2023-05-23T13:45:23.166Z,15.14
2023-05-23T13:47:49.899Z,15.38
2023-05-23T13:50:21.849Z,15.64
2023-05-23T13:52:49.549Z,16.23
2023-05-23T13:55:19.010Z,16.57
2023-05-23T13:57:46.101Z,16.61
2023-05-23T14:00:16.294Z,16.05
2023-05-23T14:02:44.959Z,16.14
2023-05-23T14:05:13.923Z,16.41
2023-05-23T14:07:41.255Z,16.14
2023-05-23T14:10:09.282Z,16.27
2023-05-23T14:12:38.150Z,16.71
2023-05-23T14:15:04.878Z,17.02
2023-05-23T14:17:33.888Z,16.77
2023-05-23T14:20:02.718Z,16.57
2023-05-23T14:22:31.593Z,16.57
2023-05-23T14:25:00.859Z,16.15
2023-05-23T14:27:32.553Z,15.52
2023-05-23T14:30:01.433Z,15.16
2023-05-23T14:32:28.006Z,15.12
2023-05-23T14:34:55.363Z,15.53
2023-05-23T14:37:21.928Z,16.03
2023-05-23T14:39:50.677Z,16.44
2023-05-23T14:42:17.212Z,16.46
2023-05-23T14:44:46.986Z,16.49
2023-05-23T14:47:13.464Z,16.67
2023-05-23T14:49:42.266Z,16.32
2023-05-23T14:52:08.936Z,16.26
2023-05-23T14:54:40.934Z,16.13
2023-05-23T14:57:10.109Z,16.08
2023-05-23T14:59:39.384Z,16.08
2023-05-23T15:02:11.634Z,15.81
2023-05-23T15:04:40.533Z,16.04
2023-05-23T15:07:09.609Z,16.16
2023-05-23T15:09:38.537Z,16.36
2023-05-23T15:12:09.731Z,15.98
2023-05-23T15:14:36.317Z,16.05
2023-05-23T15:17:08.217Z,16.23
2023-05-23T15:19:38.120Z,16.27
2023-05-23T15:22:07.634Z,16.24
2023-05-23T15:24:40.776Z,16.02
2023-05-23T15:27:20.059Z,15.87
2023-05-23T15:29:47.815Z,15.49
2023-05-23T15:32:16.797Z,15.35
2023-05-23T15:34:43.911Z,15.43
2023-05-23T15:37:11.366Z,15.69
2023-05-23T15:39:37.899Z,15.74
2023-05-23T15:42:06.816Z,15.58
2023-05-23T15:44:35.863Z,15.46
2023-05-23T15:47:02.452Z,15.39
2023-05-23T15:49:31.857Z,15.31
2023-05-23T15:52:01.047Z,15.32
2023-05-23T15:54:27.526Z,15.46
2023-05-23T15:56:59.120Z,15.50
2023-05-23T15:59:28.128Z,15.40
2023-05-23T16:01:57.215Z,15.35
2023-05-23T16:04:24.125Z,15.13
2023-05-23T16:06:51.057Z,15.16
2023-05-23T16:09:17.608Z,15.03
2023-05-23T16:11:44.127Z,15.10
2023-05-23T16:14:13.129Z,15.03
2023-05-23T16:16:42.101Z,14.90
2023-05-23T16:19:08.707Z,14.94
2023-05-23T16:21:37.805Z,14.96
2023-05-23T16:24:05.076Z,15.06
2023-05-23T16:26:31.588Z,14.95
2023-05-23T16:28:58.168Z,14.87
2023-05-23T16:31:30.426Z,14.75
2023-05-23T16:33:59.330Z,14.67
2023-05-23T16:36:30.679Z,14.57
2023-05-23T16:38:59.710Z,14.53
2023-05-23T16:41:26.367Z,14.53
2023-05-23T16:43:55.671Z,14.49
2023-05-23T16:46:24.428Z,14.37
2023-05-23T16:48:53.649Z,14.47
2023-05-23T16:51:20.252Z,14.43
2023-05-23T16:53:49.364Z,14.36
2023-05-23T16:56:18.349Z,14.28
2023-05-23T16:58:44.870Z,14.23
2023-05-23T17:01:13.936Z,14.23
2023-05-23T17:03:41.384Z,14.20
2023-05-23T17:06:08.140Z,14.15
2023-05-23T17:08:39.558Z,14.03
2023-05-23T17:11:06.086Z,13.94
2023-05-23T17:13:32.840Z,13.85
2023-05-23T17:16:01.759Z,13.67
2023-05-23T17:18:30.914Z,13.58
2023-05-23T17:20:59.865Z,13.44
2023-05-23T17:23:26.946Z,13.40
2023-05-23T17:25:54.389Z,13.37
2023-05-23T17:28:23.271Z,13.32
2023-05-23T17:30:51.643Z,13.35
2023-05-23T17:33:18.208Z,13.41
2023-05-23T17:35:44.914Z,13.38
2023-05-23T17:38:11.448Z,13.24
2023-05-23T17:40:38.078Z,13.24
2023-05-23T17:43:04.652Z,13.25
2023-05-23T17:45:31.506Z,13.27
2023-05-23T17:48:03.462Z,13.31
2023-05-23T17:50:32.765Z,13.34
2023-05-23T17:53:04.028Z,13.28
2023-05-23T17:55:30.870Z,13.15
2023-05-23T17:58:04.947Z,13.00
2023-05-23T18:00:36.074Z,12.89
2023-05-23T18:03:04.241Z,12.86
2023-05-23T18:05:30.846Z,12.80
2023-05-23T18:07:59.757Z,12.70
2023-05-23T18:10:28.824Z,12.64
2023-05-23T18:12:57.810Z,12.65
2023-05-23T18:15:30.154Z,12.65
2023-05-23T18:17:59.230Z,12.67
2023-05-23T18:20:25.817Z,12.71
2023-05-23T18:22:53.798Z,12.70
2023-05-23T18:25:22.936Z,12.74
2023-05-23T18:27:49.519Z,12.76
2023-05-23T18:30:18.501Z,12.68
2023-05-23T18:32:45.153Z,12.62
2023-05-23T18:35:11.783Z,12.48
2023-05-23T18:37:38.878Z,12.32
2023-05-23T18:40:11.164Z,12.24
2023-05-23T18:42:40.318Z,12.14
2023-05-23T18:45:07.978Z,12.05
2023-05-23T18:47:37.288Z,11.99
2023-05-23T18:50:06.563Z,11.96
2023-05-23T18:52:37.284Z,11.89
2023-05-23T18:55:04.108Z,11.83
2023-05-23T18:57:33.204Z,11.78
2023-05-23T18:59:59.903Z,11.71
2023-05-23T19:02:26.978Z,11.67
2023-05-23T19:04:53.634Z,11.62
2023-05-23T19:07:22.464Z,11.57
2023-05-23T19:09:49.044Z,11.54
2023-05-23T19:12:18.972Z,11.50
2023-05-23T19:14:45.618Z,11.43
2023-05-23T19:17:12.113Z,11.39
2023-05-23T19:19:38.763Z,11.36
2023-05-23T19:22:07.856Z,11.32
2023-05-23T19:24:40.776Z,11.28
2023-05-23T19:27:07.385Z,11.23
2023-05-23T19:29:33.869Z,11.19
2023-05-23T19:32:00.576Z,11.13
2023-05-23T19:34:27.377Z,11.09
2023-05-23T19:36:56.705Z,11.04
2023-05-23T19:39:25.332Z,11.01
2023-05-23T19:41:51.839Z,10.96
2023-05-23T19:44:18.338Z,10.90
2023-05-23T19:46:49.411Z,10.87
2023-05-23T19:49:19.658Z,10.81
2023-05-23T19:51:46.341Z,10.79
2023-05-23T19:54:19.951Z,10.74
2023-05-23T19:56:49.244Z,10.70
2023-05-23T19:59:15.875Z,10.65
2023-05-23T20:01:42.503Z,10.60
2023-05-23T20:04:12.882Z,10.55
2023-05-23T20:06:42.246Z,10.50
2023-05-23T20:09:09.064Z,10.46
2023-05-23T20:11:38.092Z,10.42
2023-05-23T20:14:04.613Z,10.41
2023-05-23T20:16:31.536Z,10.35
2023-05-23T20:18:58.110Z,10.31
2023-05-23T20:21:24.675Z,10.30
2023-05-23T20:23:54.726Z,10.26
2023-05-23T20:26:26.895Z,10.24
2023-05-23T20:28:53.533Z,10.14
2023-05-23T20:31:20.198Z,10.14
2023-05-23T20:33:46.805Z,10.13
2023-05-23T20:36:13.760Z,10.12
2023-05-23T20:38:41.146Z,10.08
2023-05-23T20:41:09.996Z,9.99
2023-05-23T20:43:39.879Z,9.97
2023-05-23T20:46:11.859Z,9.97
2023-05-23T20:48:43.860Z,9.93
2023-05-23T20:51:13.554Z,9.87
2023-05-23T20:53:40.107Z,9.83
2023-05-23T20:56:10.194Z,9.79
2023-05-23T20:58:37.959Z,9.75
2023-05-23T21:01:06.935Z,9.70
2023-05-23T21:03:33.492Z,9.65
2023-05-23T21:06:00.007Z,9.60
2023-05-23T21:08:26.511Z,9.57
2023-05-23T21:10:54.704Z,9.51
2023-05-23T21:13:24.181Z,9.52
2023-05-23T21:15:51.023Z,9.50
2023-05-23T21:18:20.146Z,9.48
2023-05-23T21:20:50.790Z,9.46
2023-05-23T21:23:19.900Z,9.44
2023-05-23T21:25:46.482Z,9.36
2023-05-23T21:28:15.416Z,9.32
2023-05-23T21:30:42.442Z,9.30
2023-05-23T21:33:09.094Z,9.30
2023-05-23T21:35:37.862Z,9.33
2023-05-23T21:38:06.718Z,9.32
2023-05-23T21:40:33.203Z,9.22
2023-05-23T21:42:59.658Z,9.17
2023-05-23T21:45:26.190Z,9.12
2023-05-23T21:47:52.700Z,9.06
2023-05-23T21:50:19.233Z,9.06
2023-05-23T21:52:45.693Z,8.96
2023-05-23T21:55:12.183Z,8.87
2023-05-23T21:57:38.681Z,8.85
2023-05-23T22:00:12.979Z,8.84
2023-05-23T22:02:40.314Z,8.79
2023-05-23T22:05:13.136Z,8.72
2023-05-23T22:07:44.366Z,8.65
2023-05-23T22:10:13.225Z,8.61
2023-05-23T22:12:42.062Z,8.58
2023-05-23T22:15:09.120Z,8.55
2023-05-23T22:17:43.284Z,8.52
2023-05-23T22:20:10.470Z,8.46
2023-05-23T22:22:38.483Z,8.40
2023-05-23T22:25:09.112Z,8.36
2023-05-23T22:27:35.798Z,8.31
2023-05-23T22:30:02.477Z,8.28
2023-05-23T22:32:29.385Z,8.28
2023-05-23T22:34:58.643Z,8.23
2023-05-23T22:37:27.708Z,8.19
2023-05-23T22:39:54.174Z,8.16
2023-05-23T22:42:25.551Z,8.10
2023-05-23T22:44:52.482Z,7.97
2023-05-23T22:47:23.813Z,7.93
2023-05-23T22:49:53.985Z,7.88
2023-05-23T22:52:20.518Z,7.86
2023-05-23T22:54:49.201Z,7.77
2023-05-23T22:57:15.714Z,7.74
2023-05-23T22:59:44.795Z,7.71
2023-05-23T23:02:16.065Z,7.73
2023-05-23T23:04:44.224Z,7.78
2023-05-23T23:07:11.405Z,7.80
2023-05-23T23:09:37.952Z,7.77
2023-05-23T23:12:07.184Z,7.73
2023-05-23T23:14:35.910Z,7.61
2023-05-23T23:17:03.321Z,7.55
2023-05-23T23:19:29.861Z,7.59
2023-05-23T23:22:01.984Z,7.63
2023-05-23T23:24:28.505Z,7.62
2023-05-23T23:26:59.971Z,7.57
2023-05-23T23:29:28.813Z,7.38
2023-05-23T23:31:58.898Z,7.34
2023-05-23T23:34:26.338Z,7.37
2023-05-23T23:36:52.844Z,7.37
2023-05-23T23:39:21.676Z,7.38
2023-05-23T23:41:48.344Z,7.37
2023-05-23T23:44:17.409Z,7.32
2023-05-23T23:46:43.952Z,7.31
2023-05-23T23:49:10.621Z,7.29
2023-05-23T23:51:37.127Z,7.26
2023-05-23T23:54:03.677Z,7.13
2023-05-23T23:56:34.912Z,7.03
2023-05-23T23:59:01.531Z,7.00
